createdAt,value
2017-07-08T00:02:27.241Z,9.13
2017-07-08T00:04:55.647Z,8.75
2017-07-08T00:07:23.940Z,8.88
2017-07-08T00:09:53.104Z,9.25
2017-07-08T00:12:22.188Z,9.13
2017-07-08T00:14:50.486Z,7.93
2017-07-08T00:17:18.803Z,9.15
2017-07-08T00:19:47.088Z,9.32
2017-07-08T00:22:15.480Z,8.90
2017-07-08T00:24:43.759Z,8.20
2017-07-08T00:27:12.036Z,8.23
2017-07-08T00:29:40.349Z,9.00
2017-07-08T00:32:09.384Z,9.88
2017-07-08T00:34:37.675Z,8.57
2017-07-08T00:37:06.024Z,7.43
2017-07-08T00:39:34.311Z,8.93
2017-07-08T00:42:02.581Z,6.97
2017-07-08T00:44:30.847Z,7.45
2017-07-08T00:46:59.144Z,9.00
2017-07-08T00:49:27.414Z,8.85
2017-07-08T00:51:55.707Z,8.77
2017-07-08T00:54:23.972Z,8.43
2017-07-08T00:56:52.259Z,8.50
2017-07-08T00:59:20.535Z,8.85
2017-07-08T01:01:49.590Z,9.43
2017-07-08T01:04:17.857Z,7.70
2017-07-08T01:06:46.167Z,7.82
2017-07-08T01:09:14.479Z,9.55
2017-07-08T01:11:42.747Z,9.35
2017-07-08T01:14:11.795Z,8.60
2017-07-08T01:16:40.075Z,8.32
2017-07-08T01:19:08.350Z,9.27
2017-07-08T01:21:36.619Z,9.65
2017-07-08T01:24:04.916Z,9.05
2017-07-08T01:26:33.186Z,9.77
2017-07-08T01:29:01.475Z,9.18
2017-07-08T01:31:29.748Z,8.75
2017-07-08T01:33:58.087Z,9.30
2017-07-08T01:36:26.343Z,8.90
2017-07-08T01:38:54.615Z,9.60
2017-07-08T01:41:23.658Z,8.25
2017-07-08T01:43:51.935Z,9.02
2017-07-08T01:46:20.223Z,8.18
2017-07-08T01:48:48.495Z,8.52
2017-07-08T01:51:16.793Z,8.90
2017-07-08T01:53:45.068Z,8.75
2017-07-08T01:56:13.347Z,8.27
2017-07-08T01:58:41.631Z,9.50
2017-07-08T02:01:09.916Z,8.77
2017-07-08T02:03:38.981Z,9.15
2017-07-08T02:06:07.275Z,9.18
2017-07-08T02:08:35.548Z,9.02
2017-07-08T02:11:03.826Z,8.32
2017-07-08T02:13:32.103Z,8.18
2017-07-08T02:16:00.399Z,8.98
2017-07-08T02:18:29.438Z,9.55
2017-07-08T02:20:57.698Z,9.70
2017-07-08T02:23:25.984Z,9.07
2017-07-08T02:25:54.264Z,8.40
2017-07-08T02:28:22.552Z,9.95
2017-07-08T02:30:50.819Z,9.68
2017-07-08T02:33:19.113Z,8.70
2017-07-08T02:35:47.418Z,9.25
2017-07-08T02:38:15.700Z,8.43
2017-07-08T02:40:43.969Z,9.50
2017-07-08T02:43:12.255Z,9.68
2017-07-08T02:45:40.527Z,9.05
2017-07-08T02:48:08.815Z,9.55
2017-07-08T02:50:37.863Z,9.10
2017-07-08T02:53:06.207Z,9.82
2017-07-08T02:55:34.468Z,9.63
2017-07-08T02:58:02.731Z,8.65
2017-07-08T03:00:31.023Z,10.18
2017-07-08T03:03:00.099Z,9.10
2017-07-08T03:05:28.395Z,10.50
2017-07-08T03:07:57.442Z,8.95
2017-07-08T03:10:25.728Z,8.90
2017-07-08T03:12:54.006Z,9.82
2017-07-08T03:15:22.292Z,9.15
2017-07-08T03:17:50.571Z,10.02
2017-07-08T03:20:18.856Z,9.98
2017-07-08T03:22:47.119Z,9.75
2017-07-08T03:25:15.408Z,10.43
2017-07-08T03:27:43.683Z,10.25
2017-07-08T03:30:11.987Z,11.12
2017-07-08T03:32:41.512Z,11.35
2017-07-08T03:35:09.788Z,10.18
2017-07-08T03:37:38.089Z,10.90
2017-07-08T03:40:06.365Z,9.35
2017-07-08T03:42:34.659Z,9.32
2017-07-08T03:45:02.931Z,9.43
2017-07-08T03:47:31.228Z,10.05
2017-07-08T03:49:59.506Z,10.48
2017-07-08T03:52:27.805Z,10.50
2017-07-08T03:54:56.856Z,11.75
2017-07-08T03:57:25.148Z,10.15
2017-07-08T03:59:53.437Z,9.80
2017-07-08T04:02:21.729Z,9.85
2017-07-08T04:04:50.004Z,10.95
2017-07-08T04:07:18.320Z,10.00
2017-07-08T04:09:46.602Z,11.80
2017-07-08T04:12:14.901Z,11.32
2017-07-08T04:14:43.194Z,11.05
2017-07-08T04:17:11.470Z,12.73
2017-07-08T04:19:39.762Z,11.45
2017-07-08T04:22:08.039Z,11.70
2017-07-08T04:24:36.330Z,10.77
2017-07-08T04:27:04.619Z,10.95
2017-07-08T04:29:33.684Z,11.73
2017-07-08T04:32:01.967Z,10.80
2017-07-08T04:34:30.280Z,10.98
2017-07-08T04:36:58.557Z,11.15
2017-07-08T04:39:26.844Z,10.00
2017-07-08T04:41:55.116Z,8.57
2017-07-08T04:44:23.409Z,9.75
2017-07-08T04:46:51.688Z,9.50
2017-07-08T04:49:19.964Z,9.77
2017-07-08T04:51:48.257Z,10.05
2017-07-08T04:54:16.541Z,9.90
2017-07-08T04:56:44.828Z,8.82
2017-07-08T04:59:13.097Z,7.62
2017-07-08T05:01:41.404Z,7.60
2017-07-08T05:04:09.680Z,8.02
2017-07-08T05:06:37.979Z,7.85
2017-07-08T05:09:06.274Z,8.48
2017-07-08T05:11:34.564Z,7.60
2017-07-08T05:14:02.839Z,7.53
2017-07-08T05:16:31.151Z,7.30
2017-07-08T05:18:59.423Z,7.03
2017-07-08T05:21:27.705Z,7.65
2017-07-08T05:23:56.009Z,7.28
2017-07-08T05:26:25.056Z,7.00
2017-07-08T05:28:53.348Z,6.97
2017-07-08T05:31:21.671Z,8.00
2017-07-08T05:33:49.967Z,6.73
2017-07-08T05:36:18.257Z,5.87
2017-07-08T05:38:46.559Z,7.35
2017-07-08T05:41:14.873Z,7.12
2017-07-08T05:43:43.948Z,6.97
2017-07-08T05:46:12.226Z,6.47
2017-07-08T05:48:40.504Z,7.30
2017-07-08T05:51:08.801Z,7.30
2017-07-08T05:53:37.103Z,7.37
2017-07-08T05:56:05.436Z,6.70
2017-07-08T05:58:33.761Z,10.20
2017-07-08T06:01:02.087Z,7.18
2017-07-08T06:03:30.372Z,6.40
2017-07-08T06:05:59.429Z,7.85
2017-07-08T06:08:27.704Z,8.23
2017-07-08T06:10:56.040Z,7.20
2017-07-08T06:13:25.078Z,8.10
2017-07-08T06:15:53.365Z,6.85
2017-07-08T06:18:21.656Z,7.40
2017-07-08T06:20:49.938Z,7.55
2017-07-08T06:23:18.235Z,7.72
2017-07-08T06:25:47.284Z,7.25
2017-07-08T06:28:15.612Z,7.60
2017-07-08T06:30:43.892Z,7.60
2017-07-08T06:33:12.952Z,8.80
2017-07-08T06:35:41.232Z,6.73
2017-07-08T06:38:09.522Z,7.60
2017-07-08T06:40:37.793Z,7.60
2017-07-08T06:43:06.123Z,7.13
2017-07-08T06:45:35.240Z,6.83
2017-07-08T06:48:03.559Z,6.50
2017-07-08T06:50:32.620Z,6.60
2017-07-08T06:53:00.916Z,6.40
2017-07-08T06:55:29.207Z,7.07
2017-07-08T06:57:57.472Z,6.90
2017-07-08T07:00:25.757Z,6.90
2017-07-08T07:02:54.032Z,7.13
2017-07-08T07:05:22.324Z,5.90
2017-07-08T07:07:51.370Z,6.30
2017-07-08T07:10:19.668Z,6.50
2017-07-08T07:12:47.946Z,7.10
2017-07-08T07:15:16.255Z,6.90
2017-07-08T07:17:45.310Z,6.00
2017-07-08T07:20:13.586Z,5.80
2017-07-08T07:22:41.867Z,6.33
2017-07-08T07:25:10.143Z,6.43
2017-07-08T07:27:38.433Z,6.33
2017-07-08T07:30:06.733Z,6.57
2017-07-08T07:32:35.795Z,6.60
2017-07-08T07:35:04.069Z,5.73
2017-07-08T07:37:32.360Z,5.73
2017-07-08T07:40:00.639Z,4.83
2017-07-08T07:42:28.949Z,4.70
2017-07-08T07:44:58.016Z,4.27
2017-07-08T07:47:26.274Z,4.33
2017-07-08T07:49:54.659Z,4.60
2017-07-08T07:52:22.960Z,4.20
2017-07-08T07:54:52.043Z,3.97
2017-07-08T07:57:20.329Z,4.37
2017-07-08T07:59:48.617Z,4.30
2017-07-08T08:02:17.764Z,3.50
2017-07-08T08:04:46.067Z,3.73
2017-07-08T08:07:14.326Z,4.33
2017-07-08T08:09:42.762Z,3.33
2017-07-08T08:12:11.031Z,4.53
2017-07-08T08:14:39.347Z,4.07
2017-07-08T08:17:07.649Z,4.20
2017-07-08T08:19:35.951Z,3.57
2017-07-08T08:22:04.997Z,4.33
2017-07-08T08:24:33.292Z,4.57
2017-07-08T08:27:01.576Z,4.17
2017-07-08T08:29:29.900Z,3.77
2017-07-08T08:31:58.177Z,4.30
2017-07-08T08:34:26.452Z,4.37
2017-07-08T08:36:54.968Z,3.97
2017-07-08T08:39:23.234Z,4.50
2017-07-08T08:41:51.665Z,4.40
2017-07-08T08:44:19.963Z,4.13
2017-07-08T08:46:49.031Z,4.80
2017-07-08T08:49:17.426Z,4.77
2017-07-08T08:51:46.526Z,4.47
2017-07-08T08:54:15.559Z,5.20
2017-07-08T08:56:43.879Z,4.40
2017-07-08T08:59:12.252Z,4.63
2017-07-08T09:01:40.539Z,4.60
2017-07-08T09:04:08.825Z,4.50
2017-07-08T09:06:37.135Z,4.80
2017-07-08T09:09:05.473Z,5.20
2017-07-08T09:11:33.737Z,4.90
2017-07-08T09:14:02.079Z,5.40
2017-07-08T09:16:30.354Z,5.50
2017-07-08T09:18:58.638Z,5.40
2017-07-08T09:21:26.905Z,5.10
2017-07-08T09:23:55.627Z,5.53
2017-07-08T09:26:23.895Z,5.40
2017-07-08T09:28:52.187Z,4.53
2017-07-08T09:31:20.447Z,5.80
2017-07-08T09:33:48.751Z,5.23
2017-07-08T09:36:17.024Z,4.83
2017-07-08T09:38:45.304Z,4.87
2017-07-08T09:41:15.577Z,4.77
2017-07-08T09:43:43.924Z,5.00
2017-07-08T09:46:12.189Z,4.40
2017-07-08T09:48:40.460Z,4.70
2017-07-08T09:51:08.761Z,5.13
2017-07-08T09:53:37.037Z,5.50
2017-07-08T09:56:05.330Z,5.20
2017-07-08T09:58:34.375Z,5.20
2017-07-08T10:01:02.662Z,5.43
2017-07-08T10:03:30.932Z,4.67
2017-07-08T10:05:59.229Z,5.10
2017-07-08T10:08:27.557Z,4.70
2017-07-08T10:10:55.888Z,4.67
2017-07-08T10:13:24.212Z,5.40
2017-07-08T10:15:52.520Z,5.00
2017-07-08T10:18:20.796Z,5.07
2017-07-08T10:20:49.108Z,4.47
2017-07-08T10:23:17.380Z,5.73
2017-07-08T10:25:46.420Z,4.57
2017-07-08T10:28:14.722Z,5.13
2017-07-08T10:30:43.004Z,5.07
2017-07-08T10:33:11.304Z,4.93
2017-07-08T10:35:40.354Z,4.73
2017-07-08T10:38:08.645Z,4.63
2017-07-08T10:40:36.916Z,4.80
2017-07-08T10:43:05.198Z,4.97
2017-07-08T10:45:33.468Z,5.40
2017-07-08T10:48:01.765Z,5.17
2017-07-08T10:50:30.042Z,4.90
2017-07-08T10:52:58.332Z,5.43
2017-07-08T10:55:26.613Z,5.10
2017-07-08T10:57:54.916Z,5.37
2017-07-08T11:00:23.196Z,5.40
2017-07-08T11:02:51.518Z,6.10
2017-07-08T11:05:19.788Z,6.37
2017-07-08T11:07:48.074Z,5.80
2017-07-08T11:10:16.360Z,6.30
2017-07-08T11:12:44.689Z,5.23
2017-07-08T11:15:12.978Z,5.50
2017-07-08T11:17:41.253Z,6.00
2017-07-08T11:20:09.539Z,5.83
2017-07-08T11:22:37.825Z,6.30
2017-07-08T11:25:06.456Z,6.50
2017-07-08T11:27:34.732Z,6.30
2017-07-08T11:30:03.028Z,5.90
2017-07-08T11:32:31.301Z,6.40
2017-07-08T11:35:00.359Z,8.77
2017-07-08T11:37:28.668Z,8.57
2017-07-08T11:39:57.720Z,6.60
2017-07-08T11:42:25.995Z,7.00
2017-07-08T11:44:54.295Z,7.10
2017-07-08T11:47:22.557Z,6.50
2017-07-08T11:49:50.819Z,6.43
2017-07-08T11:52:19.109Z,6.40
2017-07-08T11:54:47.374Z,7.10
2017-07-08T11:57:15.669Z,6.83
2017-07-08T11:59:43.938Z,7.30
2017-07-08T12:02:12.233Z,7.03
2017-07-08T12:04:40.501Z,5.90
2017-07-08T12:07:08.788Z,6.87
2017-07-08T12:09:37.117Z,6.90
2017-07-08T12:12:05.440Z,6.17
2017-07-08T12:14:33.711Z,7.00
2017-07-08T12:17:02.133Z,6.73
2017-07-08T12:19:30.407Z,5.83
2017-07-08T12:21:58.685Z,5.83
2017-07-08T12:24:26.975Z,6.70
2017-07-08T12:26:55.276Z,6.33
2017-07-08T12:29:23.575Z,6.00
2017-07-08T12:31:51.864Z,6.87
2017-07-08T12:34:20.307Z,6.83
2017-07-08T12:36:49.404Z,6.70
2017-07-08T12:39:17.697Z,6.40
2017-07-08T12:41:46.063Z,6.00
2017-07-08T12:44:15.120Z,5.60
2017-07-08T12:46:43.392Z,5.97
2017-07-08T12:49:11.715Z,6.20
2017-07-08T12:51:39.989Z,6.03
2017-07-08T12:54:09.073Z,5.70
2017-07-08T12:56:37.364Z,6.40
2017-07-08T12:59:07.033Z,5.83
2017-07-08T13:01:35.367Z,5.87
2017-07-08T13:04:03.639Z,6.37
2017-07-08T13:06:31.964Z,6.10
2017-07-08T13:09:00.318Z,6.43
2017-07-08T13:11:28.596Z,5.90
2017-07-08T13:13:56.877Z,6.30
2017-07-08T13:16:25.243Z,6.23
2017-07-08T13:18:53.574Z,6.37
2017-07-08T13:21:21.872Z,6.10
2017-07-08T13:23:50.151Z,6.57
2017-07-08T13:26:19.217Z,5.33
2017-07-08T13:28:47.488Z,7.27
2017-07-08T13:31:15.800Z,6.17
2017-07-08T13:33:44.860Z,5.73
2017-07-08T13:36:13.132Z,6.70
2017-07-08T13:38:41.428Z,6.07
2017-07-08T13:41:09.709Z,6.00
2017-07-08T13:43:37.996Z,7.10
2017-07-08T13:46:06.609Z,7.00
2017-07-08T14:06:59.205Z,8.15
2017-07-08T14:09:27.073Z,8.03
2017-07-08T14:11:54.551Z,7.25
2017-07-08T14:14:21.963Z,7.70
2017-07-08T14:20:33.745Z,8.05
2017-07-08T14:23:01.877Z,6.93
2017-07-08T14:25:30.420Z,7.30
2017-07-08T14:27:58.785Z,7.43
2017-07-08T14:30:27.252Z,7.35
2017-07-08T14:32:55.617Z,7.65
2017-07-08T14:35:23.980Z,7.50
2017-07-08T14:40:49.417Z,7.70
2017-07-08T14:50:00.725Z,7.03
2017-07-08T14:52:29.117Z,7.87
2017-07-08T14:54:57.499Z,7.80
2017-07-08T14:57:25.903Z,7.10
2017-07-08T14:59:54.277Z,6.97
2017-07-08T15:02:22.752Z,8.65
2017-07-08T15:04:51.141Z,7.95
2017-07-08T15:07:19.519Z,8.07
2017-07-08T15:09:47.901Z,8.48
2017-07-08T15:12:16.336Z,7.93
2017-07-08T15:14:44.725Z,8.77
2017-07-08T15:17:13.105Z,7.40
2017-07-08T15:19:41.508Z,8.30
2017-07-08T15:22:09.912Z,8.05
2017-07-08T15:24:38.338Z,8.35
2017-07-08T15:27:06.745Z,7.65
2017-07-08T15:29:35.113Z,8.35
2017-07-08T15:32:04.229Z,8.60
2017-07-08T15:39:05.185Z,7.10
2017-07-08T15:41:33.488Z,6.22
2017-07-08T15:44:01.792Z,6.07
2017-07-08T15:46:30.076Z,6.40
2017-07-08T15:48:59.121Z,7.00
2017-07-08T15:51:27.416Z,7.67
2017-07-08T15:53:59.973Z,7.63
2017-07-08T15:56:28.283Z,8.00
2017-07-08T15:58:56.568Z,6.83
2017-07-08T16:01:24.835Z,6.90
2017-07-08T16:03:53.139Z,7.27
2017-07-08T16:06:21.436Z,6.57
2017-07-08T16:08:49.723Z,6.50
2017-07-08T16:11:18.021Z,6.50
2017-07-08T16:13:46.306Z,6.30
2017-07-08T16:16:14.585Z,6.17
2017-07-08T16:18:42.868Z,6.43
2017-07-08T16:21:11.139Z,6.50
2017-07-08T16:23:39.429Z,6.00
2017-07-08T16:26:07.713Z,6.07
2017-07-08T16:28:36.032Z,6.40
2017-07-08T16:31:04.316Z,6.40
2017-07-08T16:33:34.625Z,6.00
2017-07-08T16:36:03.450Z,5.60
2017-07-08T16:38:32.647Z,6.40
2017-07-08T16:41:00.936Z,5.83
2017-07-08T16:43:29.213Z,6.00
2017-07-08T16:45:57.523Z,5.70
2017-07-08T16:48:25.804Z,5.20
2017-07-08T16:50:54.110Z,5.37
2017-07-08T16:53:22.439Z,5.20
2017-07-08T16:55:50.735Z,5.30
2017-07-08T16:58:19.785Z,5.60
2017-07-08T17:00:48.061Z,6.17
2017-07-08T17:03:16.356Z,6.40
2017-07-08T17:05:44.632Z,6.00
2017-07-08T17:08:12.920Z,5.33
2017-07-08T17:10:41.341Z,7.07
2017-07-08T17:13:09.688Z,5.63
2017-07-08T17:15:37.969Z,6.20
2017-07-08T17:18:06.311Z,5.27
2017-07-08T17:20:34.600Z,5.33
2017-07-08T17:23:02.893Z,5.20
2017-07-08T17:25:31.188Z,5.37
2017-07-08T17:27:59.505Z,4.70
2017-07-08T17:30:27.794Z,4.50
2017-07-08T17:32:56.078Z,6.10
2017-07-08T17:35:24.377Z,5.53
2017-07-08T17:37:52.662Z,6.20
2017-07-08T17:40:20.968Z,4.77
2017-07-08T17:42:50.030Z,4.80
2017-07-08T17:45:18.312Z,5.83
2017-07-08T17:47:46.597Z,5.23
2017-07-08T17:50:14.877Z,5.90
2017-07-08T17:52:43.151Z,4.83
2017-07-08T17:55:11.445Z,5.00
2017-07-08T17:57:40.489Z,5.30
2017-07-08T18:00:08.809Z,4.87
2017-07-08T18:02:37.109Z,5.23
2017-07-08T18:05:05.411Z,5.07
2017-07-08T18:07:33.705Z,5.63
2017-07-08T18:10:01.989Z,4.90
2017-07-08T18:12:30.288Z,5.00
2017-07-08T18:14:58.577Z,5.17
2017-07-08T18:17:27.628Z,4.50
2017-07-08T18:19:55.904Z,5.13
2017-07-08T18:22:24.200Z,5.63
2017-07-08T18:24:52.487Z,4.53
2017-07-08T18:27:20.789Z,4.83
2017-07-08T18:29:49.068Z,5.03
2017-07-08T18:32:17.402Z,5.47
2017-07-08T18:34:45.680Z,5.80
2017-07-08T18:37:13.948Z,4.90
2017-07-08T18:39:42.243Z,5.50
2017-07-08T18:42:10.529Z,5.07
2017-07-08T18:44:38.828Z,4.50
2017-07-08T18:47:07.126Z,4.80
2017-07-08T18:49:35.456Z,5.17
2017-07-08T18:52:03.740Z,5.73
2017-07-08T18:54:32.037Z,5.30
2017-07-08T18:57:00.320Z,5.50
2017-07-08T18:59:28.636Z,5.57
2017-07-08T19:01:56.979Z,4.50
2017-07-08T19:04:25.315Z,6.90
2017-07-08T19:06:53.603Z,6.20
2017-07-08T19:09:21.869Z,5.40
2017-07-08T19:11:50.176Z,6.43
2017-07-08T19:14:18.453Z,7.57
2017-07-08T19:16:47.528Z,6.93
2017-07-08T19:19:15.817Z,6.20
2017-07-08T19:21:44.115Z,7.60
2017-07-08T19:24:12.394Z,8.17
2017-07-08T19:26:41.457Z,8.03
2017-07-08T19:29:09.767Z,7.90
2017-07-08T19:31:38.055Z,7.77
2017-07-08T19:34:06.365Z,7.00
2017-07-08T19:36:34.768Z,8.80
2017-07-08T19:39:03.047Z,7.83
2017-07-08T19:41:31.316Z,7.40
2017-07-08T19:43:59.615Z,10.83
2017-07-08T19:46:27.893Z,11.63
2017-07-08T19:48:56.964Z,9.27
2017-07-08T19:51:25.240Z,9.20
2017-07-08T19:53:53.551Z,11.07
2017-07-08T19:56:21.853Z,8.73
2017-07-08T19:58:50.161Z,9.70
2017-07-08T20:01:18.449Z,7.70
2017-07-08T20:03:46.751Z,8.03
2017-07-08T20:06:15.024Z,6.30
2017-07-08T20:08:43.343Z,6.90
2017-07-08T20:11:11.659Z,7.03
2017-07-08T20:13:39.935Z,8.50
2017-07-08T20:16:08.231Z,9.53
2017-07-08T20:18:36.513Z,7.90
2017-07-08T20:21:04.815Z,7.30
2017-07-08T20:23:33.092Z,7.97
2017-07-08T20:26:01.387Z,8.40
2017-07-08T20:28:29.721Z,7.30
2017-07-08T20:30:58.012Z,7.23
2017-07-08T20:33:26.301Z,7.90
2017-07-08T20:35:54.637Z,8.80
2017-07-08T20:38:22.914Z,9.33
2017-07-08T20:40:51.227Z,8.90
2017-07-08T20:43:20.284Z,9.93
2017-07-08T20:45:48.564Z,8.40
2017-07-08T20:48:16.872Z,7.57
2017-07-08T20:50:45.147Z,7.20
2017-07-08T20:53:14.212Z,8.10
2017-07-08T20:55:42.497Z,7.47
2017-07-08T20:58:10.821Z,7.83
2017-07-08T21:00:39.097Z,6.93
2017-07-08T21:03:07.391Z,8.13
2017-07-08T21:05:35.680Z,7.17
2017-07-08T21:08:03.989Z,7.57
2017-07-08T21:10:32.265Z,7.10
2017-07-08T21:13:00.544Z,7.60
2017-07-08T21:15:28.844Z,6.97
2017-07-08T21:17:57.888Z,6.70
2017-07-08T21:20:26.188Z,7.70
2017-07-08T21:22:54.464Z,7.70
2017-07-08T21:25:22.764Z,6.13
2017-07-08T21:27:51.802Z,6.20
2017-07-08T21:30:20.095Z,6.90
2017-07-08T21:32:48.380Z,6.63
2017-07-08T21:35:16.683Z,6.97
2017-07-08T21:37:45.742Z,7.55
2017-07-08T21:40:14.058Z,6.80
2017-07-08T21:42:42.357Z,5.93
2017-07-08T21:45:10.654Z,6.60
2017-07-08T21:47:38.961Z,6.93
2017-07-08T21:50:07.241Z,6.00
2017-07-08T21:52:35.551Z,6.43
2017-07-08T21:55:04.607Z,5.90
2017-07-08T21:57:32.911Z,5.30
2017-07-08T22:00:01.196Z,6.55
2017-07-08T22:02:29.502Z,6.32
2017-07-08T22:04:57.797Z,6.10
2017-07-08T22:07:27.069Z,7.28
2017-07-08T22:09:55.389Z,6.40
2017-07-08T22:12:24.442Z,6.20
2017-07-08T22:14:52.741Z,5.68
2017-07-08T22:17:24.679Z,7.03
2017-07-08T22:19:52.968Z,5.80
2017-07-08T22:22:21.249Z,6.37
2017-07-08T22:24:49.940Z,6.43
2017-07-08T22:27:18.286Z,5.85
2017-07-08T22:29:46.641Z,6.68
2017-07-08T22:32:14.953Z,6.20
2017-07-08T22:34:43.282Z,5.50
2017-07-08T22:37:11.599Z,6.07
2017-07-08T22:39:39.950Z,5.70
2017-07-08T22:42:09.038Z,5.32
2017-07-08T22:44:37.349Z,6.20
2017-07-08T22:47:05.683Z,5.90
2017-07-08T22:49:34.013Z,6.10
2017-07-08T22:52:02.345Z,5.70
2017-07-08T22:54:30.692Z,5.47
2017-07-08T22:56:59.027Z,6.32
2017-07-08T22:59:27.346Z,5.20
2017-07-08T23:01:55.674Z,6.10
2017-07-08T23:04:23.987Z,5.15
2017-07-08T23:06:52.334Z,6.10
2017-07-08T23:09:21.423Z,5.62
2017-07-08T23:11:49.752Z,6.82
2017-07-08T23:14:18.083Z,5.70
2017-07-08T23:16:47.164Z,5.35
2017-07-08T23:19:15.492Z,5.68
2017-07-08T23:21:43.807Z,5.80
2017-07-08T23:24:12.142Z,5.95
2017-07-08T23:26:40.456Z,6.80
2017-07-08T23:29:08.792Z,5.60
2017-07-08T23:31:37.111Z,6.00
2017-07-08T23:34:05.450Z,5.80
2017-07-08T23:36:33.763Z,5.47
2017-07-08T23:39:02.135Z,5.85
2017-07-08T23:41:30.458Z,5.93
2017-07-08T23:43:58.802Z,5.60
2017-07-08T23:46:27.127Z,5.87
2017-07-08T23:48:56.214Z,5.93
2017-07-08T23:51:24.551Z,6.70
2017-07-08T23:53:52.867Z,5.82
2017-07-08T23:56:21.192Z,5.82
2017-07-08T23:58:49.506Z,5.68
